sensor_id;sensor_type;location;lat;lon;timestamp;temperature;humidity
19088;DHT22;9676;50.916;13.352;2024-01-15T00:02:15;4.70;98.90
19088;DHT22;9676;50.916;13.352;2024-01-15T00:05:04;4.70;98.90
19088;DHT22;9676;50.916;13.352;2024-01-15T00:07:54;4.70;99.00
19088;DHT22;9676;50.916;13.352;2024-01-15T00:10:43;4.60;99.00
19088;DHT22;9676;50.916;13.352;2024-01-15T00:13:32;4.60;99.10
19088;DHT22;9676;50.916;13.352;2024-01-15T00:16:23;4.60;99.00
19088;DHT22;9676;50.916;13.352;2024-01-15T00:19:13;4.60;99.10
19088;DHT22;9676;50.916;13.352;2024-01-15T00:22:02;4.50;99.00
19088;DHT22;9676;50.916;13.352;2024-01-15T00:24:52;4.50;99.10
19088;DHT22;9676;50.916;13.352;2024-01-15T00:27:41;4.50;99.20
19088;DHT22;9676;50.916;13.352;2024-01-15T00:30:31;4.50;99.30
19088;DHT22;9676;50.916;13.352;2024-01-15T00:33:22;4.40;99.40
19088;DHT22;9676;50.916;13.352;2024-01-15T00:36:11;4.40;99.50
19088;DHT22;9676;50.916;13.352;2024-01-15T00:39:02;4.40;99.60
19088;DHT22;9676;50.916;13.352;2024-01-15T00:41:53;4.40;99.70
19088;DHT22;9676;50.916;13.352;2024-01-15T00:44:42;4.40;99.70
19088;DHT22;9676;50.916;13.352;2024-01-15T00:47:32;4.40;99.90
19088;DHT22;9676;50.916;13.352;2024-01-15T00:50:22;4.40;99.80
19088;DHT22;9676;50.916;13.352;2024-01-15T00:53:12;4.40;99.90
19088;DHT22;9676;50.916;13.352;2024-01-15T00:56:01;4.40;99.90
19088;DHT22;9676;50.916;13.352;2024-01-15T00:58:51;4.40;99.80
19088;DHT22;9676;50.916;13.352;2024-01-15T01:01:40;4.40;99.90
19088;DHT22;9676;50.916;13.352;2024-01-15T01:04:31;4.40;99.90
19088;DHT22;9676;50.916;13.352;2024-01-15T01:07:22;4.40;99.90
19088;DHT22;9676;50.916;13.352;2024-01-15T01:10:11;4.40;99.90
19088;DHT22;9676;50.916;13.352;2024-01-15T01:13:00;4.40;99.90
19088;DHT22;9676;50.916;13.352;2024-01-15T01:15:50;4.40;99.90
19088;DHT22;9676;50.916;13.352;2024-01-15T01:18:39;4.40;99.80
19088;DHT22;9676;50.916;13.352;2024-01-15T01:21:29;4.40;99.90
19088;DHT22;9676;50.916;13.352;2024-01-15T01:24:19;4.40;99.80
19088;DHT22;9676;50.916;13.352;2024-01-15T01:27:09;4.40;99.90
19088;DHT22;9676;50.916;13.352;2024-01-15T01:29:58;4.40;99.70
19088;DHT22;9676;50.916;13.352;2024-01-15T01:32:48;4.30;99.60
19088;DHT22;9676;50.916;13.352;2024-01-15T01:35:37;4.30;99.60
19088;DHT22;9676;50.916;13.352;2024-01-15T01:38:27;4.30;99.60
19088;DHT22;9676;50.916;13.352;2024-01-15T01:41:17;4.30;99.80
19088;DHT22;9676;50.916;13.352;2024-01-15T01:44:07;4.30;99.80
19088;DHT22;9676;50.916;13.352;2024-01-15T01:46:56;4.30;99.80
19088;DHT22;9676;50.916;13.352;2024-01-15T01:49:46;4.30;99.60
19088;DHT22;9676;50.916;13.352;2024-01-15T01:52:36;4.30;99.40
19088;DHT22;9676;50.916;13.352;2024-01-15T01:55:27;4.30;99.40
19088;DHT22;9676;50.916;13.352;2024-01-15T01:58:20;4.30;99.40
19088;DHT22;9676;50.916;13.352;2024-01-15T02:01:09;4.30;99.40
19088;DHT22;9676;50.916;13.352;2024-01-15T02:04:00;4.30;99.40
19088;DHT22;9676;50.916;13.352;2024-01-15T02:06:50;4.30;99.50
19088;DHT22;9676;50.916;13.352;2024-01-15T02:09:41;4.30;99.40
19088;DHT22;9676;50.916;13.352;2024-01-15T02:12:30;4.30;99.40
19088;DHT22;9676;50.916;13.352;2024-01-15T02:15:21;4.20;99.30
19088;DHT22;9676;50.916;13.352;2024-01-15T02:18:10;4.20;99.30
19088;DHT22;9676;50.916;13.352;2024-01-15T02:21:00;4.20;99.20
19088;DHT22;9676;50.916;13.352;2024-01-15T02:23:51;4.20;99.40
19088;DHT22;9676;50.916;13.352;2024-01-15T02:26:40;4.20;99.20
19088;DHT22;9676;50.916;13.352;2024-01-15T02:29:30;4.20;99.20
19088;DHT22;9676;50.916;13.352;2024-01-15T02:32:19;4.20;99.30
19088;DHT22;9676;50.916;13.352;2024-01-15T02:35:08;4.20;99.30
19088;DHT22;9676;50.916;13.352;2024-01-15T02:37:58;4.20;99.20
19088;DHT22;9676;50.916;13.352;2024-01-15T02:40:49;4.20;99.30
19088;DHT22;9676;50.916;13.352;2024-01-15T02:43:39;4.20;99.30
19088;DHT22;9676;50.916;13.352;2024-01-15T02:46:29;4.20;99.20
19088;DHT22;9676;50.916;13.352;2024-01-15T02:49:18;4.20;99.00
19088;DHT22;9676;50.916;13.352;2024-01-15T02:52:08;4.20;98.90
19088;DHT22;9676;50.916;13.352;2024-01-15T02:54:57;4.20;98.80
19088;DHT22;9676;50.916;13.352;2024-01-15T02:57:48;4.20;98.70
19088;DHT22;9676;50.916;13.352;2024-01-15T03:00:37;4.10;98.70
19088;DHT22;9676;50.916;13.352;2024-01-15T03:03:27;4.10;98.70
19088;DHT22;9676;50.916;13.352;2024-01-15T03:06:16;4.10;98.70
19088;DHT22;9676;50.916;13.352;2024-01-15T03:09:06;4.10;98.60
19088;DHT22;9676;50.916;13.352;2024-01-15T03:11:55;4.10;98.40
19088;DHT22;9676;50.916;13.352;2024-01-15T03:14:46;4.10;98.40
19088;DHT22;9676;50.916;13.352;2024-01-15T03:17:35;4.10;98.20
19088;DHT22;9676;50.916;13.352;2024-01-15T03:20:25;4.00;98.10
19088;DHT22;9676;50.916;13.352;2024-01-15T03:23:14;4.00;98.10
19088;DHT22;9676;50.916;13.352;2024-01-15T03:26:03;4.00;98.10
19088;DHT22;9676;50.916;13.352;2024-01-15T03:28:53;3.90;98.10
19088;DHT22;9676;50.916;13.352;2024-01-15T03:31:44;3.90;98.40
19088;DHT22;9676;50.916;13.352;2024-01-15T03:34:33;3.90;98.10
19088;DHT22;9676;50.916;13.352;2024-01-15T03:37:23;3.90;98.10
19088;DHT22;9676;50.916;13.352;2024-01-15T03:40:12;3.90;98.10
19088;DHT22;9676;50.916;13.352;2024-01-15T03:43:05;3.80;98.20
19088;DHT22;9676;50.916;13.352;2024-01-15T03:45:55;3.80;98.20
19088;DHT22;9676;50.916;13.352;2024-01-15T03:48:46;3.80;98.10
19088;DHT22;9676;50.916;13.352;2024-01-15T03:51:35;3.80;98.10
19088;DHT22;9676;50.916;13.352;2024-01-15T03:54:25;3.80;98.00
19088;DHT22;9676;50.916;13.352;2024-01-15T03:57:15;3.80;98.10
19088;DHT22;9676;50.916;13.352;2024-01-15T04:00:06;3.70;98.00
19088;DHT22;9676;50.916;13.352;2024-01-15T04:02:56;3.70;98.10
19088;DHT22;9676;50.916;13.352;2024-01-15T04:05:47;3.70;98.10
19088;DHT22;9676;50.916;13.352;2024-01-15T04:08:37;3.70;98.30
19088;DHT22;9676;50.916;13.352;2024-01-15T04:11:26;3.60;98.30
19088;DHT22;9676;50.916;13.352;2024-01-15T04:14:15;3.60;98.40
19088;DHT22;9676;50.916;13.352;2024-01-15T04:17:05;3.60;98.50
19088;DHT22;9676;50.916;13.352;2024-01-15T04:19:54;3.60;98.50
19088;DHT22;9676;50.916;13.352;2024-01-15T04:22:45;3.60;98.50
19088;DHT22;9676;50.916;13.352;2024-01-15T04:25:34;3.60;98.50
19088;DHT22;9676;50.916;13.352;2024-01-15T04:28:24;3.50;98.40
19088;DHT22;9676;50.916;13.352;2024-01-15T04:31:22;3.50;98.40
19088;DHT22;9676;50.916;13.352;2024-01-15T04:34:12;3.50;98.60
19088;DHT22;9676;50.916;13.352;2024-01-15T04:37:01;3.50;98.60
19088;DHT22;9676;50.916;13.352;2024-01-15T04:39:52;3.50;98.60
19088;DHT22;9676;50.916;13.352;2024-01-15T04:42:43;3.40;98.60
19088;DHT22;9676;50.916;13.352;2024-01-15T04:45:33;3.40;98.60
19088;DHT22;9676;50.916;13.352;2024-01-15T04:48:23;3.40;98.60
19088;DHT22;9676;50.916;13.352;2024-01-15T04:51:12;3.40;98.60
19088;DHT22;9676;50.916;13.352;2024-01-15T04:54:02;3.40;98.60
19088;DHT22;9676;50.916;13.352;2024-01-15T04:56:52;3.40;98.80
19088;DHT22;9676;50.916;13.352;2024-01-15T04:59:42;3.30;98.70
19088;DHT22;9676;50.916;13.352;2024-01-15T05:02:31;3.30;98.40
19088;DHT22;9676;50.916;13.352;2024-01-15T05:05:20;3.30;98.40
19088;DHT22;9676;50.916;13.352;2024-01-15T05:08:10;3.30;98.60
19088;DHT22;9676;50.916;13.352;2024-01-15T05:10:59;3.20;98.80
19088;DHT22;9676;50.916;13.352;2024-01-15T05:13:50;3.20;98.90
19088;DHT22;9676;50.916;13.352;2024-01-15T05:16:40;3.20;99.10
19088;DHT22;9676;50.916;13.352;2024-01-15T05:19:35;3.20;99.00
19088;DHT22;9676;50.916;13.352;2024-01-15T05:22:25;3.20;99.30
19088;DHT22;9676;50.916;13.352;2024-01-15T05:25:14;3.20;99.00
19088;DHT22;9676;50.916;13.352;2024-01-15T05:28:05;3.20;99.00
19088;DHT22;9676;50.916;13.352;2024-01-15T05:30:56;3.20;99.00
19088;DHT22;9676;50.916;13.352;2024-01-15T05:33:45;3.20;99.10
19088;DHT22;9676;50.916;13.352;2024-01-15T05:36:35;3.20;99.10
19088;DHT22;9676;50.916;13.352;2024-01-15T05:39:24;3.20;99.20
19088;DHT22;9676;50.916;13.352;2024-01-15T05:42:14;3.20;99.20
19088;DHT22;9676;50.916;13.352;2024-01-15T05:45:04;3.20;99.10
19088;DHT22;9676;50.916;13.352;2024-01-15T05:47:56;3.20;98.60
19088;DHT22;9676;50.916;13.352;2024-01-15T05:50:46;3.20;98.10
19088;DHT22;9676;50.916;13.352;2024-01-15T05:53:35;3.20;97.90
19088;DHT22;9676;50.916;13.352;2024-01-15T05:56:28;3.10;97.80
19088;DHT22;9676;50.916;13.352;2024-01-15T05:59:17;3.10;98.00
19088;DHT22;9676;50.916;13.352;2024-01-15T06:02:07;3.10;98.20
19088;DHT22;9676;50.916;13.352;2024-01-15T06:04:57;3.00;98.30
19088;DHT22;9676;50.916;13.352;2024-01-15T06:07:47;3.00;98.30
19088;DHT22;9676;50.916;13.352;2024-01-15T06:10:36;3.00;98.40
19088;DHT22;9676;50.916;13.352;2024-01-15T06:13:26;3.00;98.20
19088;DHT22;9676;50.916;13.352;2024-01-15T06:16:16;3.00;98.10
19088;DHT22;9676;50.916;13.352;2024-01-15T06:19:06;3.00;98.10
19088;DHT22;9676;50.916;13.352;2024-01-15T06:21:58;2.90;98.10
19088;DHT22;9676;50.916;13.352;2024-01-15T06:24:48;3.00;98.20
19088;DHT22;9676;50.916;13.352;2024-01-15T06:27:37;3.00;98.20
19088;DHT22;9676;50.916;13.352;2024-01-15T06:30:27;3.00;98.20
19088;DHT22;9676;50.916;13.352;2024-01-15T06:33:17;3.00;98.40
19088;DHT22;9676;50.916;13.352;2024-01-15T06:36:08;3.00;98.60
19088;DHT22;9676;50.916;13.352;2024-01-15T06:39:00;3.00;98.30
19088;DHT22;9676;50.916;13.352;2024-01-15T06:41:49;3.00;98.20
19088;DHT22;9676;50.916;13.352;2024-01-15T06:44:38;3.00;98.00
19088;DHT22;9676;50.916;13.352;2024-01-15T06:47:28;3.00;97.70
19088;DHT22;9676;50.916;13.352;2024-01-15T06:50:17;3.00;97.40
19088;DHT22;9676;50.916;13.352;2024-01-15T06:53:07;3.00;97.20
19088;DHT22;9676;50.916;13.352;2024-01-15T06:55:57;3.00;97.20
19088;DHT22;9676;50.916;13.352;2024-01-15T06:58:47;2.90;97.20
19088;DHT22;9676;50.916;13.352;2024-01-15T07:01:36;2.90;97.20
19088;DHT22;9676;50.916;13.352;2024-01-15T07:04:25;2.90;97.20
19088;DHT22;9676;50.916;13.352;2024-01-15T07:07:15;2.90;97.40
19088;DHT22;9676;50.916;13.352;2024-01-15T07:10:06;2.80;97.50
19088;DHT22;9676;50.916;13.352;2024-01-15T07:12:57;2.80;97.40
19088;DHT22;9676;50.916;13.352;2024-01-15T07:15:47;2.80;97.40
19088;DHT22;9676;50.916;13.352;2024-01-15T07:18:37;2.80;97.40
19088;DHT22;9676;50.916;13.352;2024-01-15T07:21:26;2.90;97.50
19088;DHT22;9676;50.916;13.352;2024-01-15T07:24:15;2.90;97.70
19088;DHT22;9676;50.916;13.352;2024-01-15T07:27:05;2.90;97.80
19088;DHT22;9676;50.916;13.352;2024-01-15T07:29:56;2.90;97.80
19088;DHT22;9676;50.916;13.352;2024-01-15T07:32:49;2.90;97.80
19088;DHT22;9676;50.916;13.352;2024-01-15T07:35:40;2.90;97.90
19088;DHT22;9676;50.916;13.352;2024-01-15T07:38:30;3.00;98.00
19088;DHT22;9676;50.916;13.352;2024-01-15T07:41:19;3.00;98.10
19088;DHT22;9676;50.916;13.352;2024-01-15T07:44:08;3.00;98.10
19088;DHT22;9676;50.916;13.352;2024-01-15T07:46:59;3.00;98.10
19088;DHT22;9676;50.916;13.352;2024-01-15T07:49:49;3.10;98.10
19088;DHT22;9676;50.916;13.352;2024-01-15T07:52:39;3.10;98.30
19088;DHT22;9676;50.916;13.352;2024-01-15T07:55:29;3.10;98.30
19088;DHT22;9676;50.916;13.352;2024-01-15T07:58:19;3.20;98.40
19088;DHT22;9676;50.916;13.352;2024-01-15T08:01:09;3.20;98.20
19088;DHT22;9676;50.916;13.352;2024-01-15T08:04:00;3.20;98.30
19088;DHT22;9676;50.916;13.352;2024-01-15T08:06:50;3.30;98.50
19088;DHT22;9676;50.916;13.352;2024-01-15T08:09:40;3.30;98.60
19088;DHT22;9676;50.916;13.352;2024-01-15T08:12:29;3.30;98.80
19088;DHT22;9676;50.916;13.352;2024-01-15T08:15:19;3.40;98.90
19088;DHT22;9676;50.916;13.352;2024-01-15T08:18:08;3.40;98.90
19088;DHT22;9676;50.916;13.352;2024-01-15T08:20:59;3.40;99.10
19088;DHT22;9676;50.916;13.352;2024-01-15T08:23:49;3.40;99.20
19088;DHT22;9676;50.916;13.352;2024-01-15T08:26:38;3.50;99.20
19088;DHT22;9676;50.916;13.352;2024-01-15T08:29:28;3.50;99.20
19088;DHT22;9676;50.916;13.352;2024-01-15T08:32:20;3.50;99.10
19088;DHT22;9676;50.916;13.352;2024-01-15T08:35:10;3.50;99.20
19088;DHT22;9676;50.916;13.352;2024-01-15T08:38:01;3.60;99.30
19088;DHT22;9676;50.916;13.352;2024-01-15T08:40:51;3.60;99.30
19088;DHT22;9676;50.916;13.352;2024-01-15T08:43:41;3.60;99.40
19088;DHT22;9676;50.916;13.352;2024-01-15T08:46:30;3.70;99.30
19088;DHT22;9676;50.916;13.352;2024-01-15T08:49:20;3.70;99.30
19088;DHT22;9676;50.916;13.352;2024-01-15T08:52:09;3.80;99.20
19088;DHT22;9676;50.916;13.352;2024-01-15T08:55:00;3.80;99.50
19088;DHT22;9676;50.916;13.352;2024-01-15T08:57:50;3.90;99.50
19088;DHT22;9676;50.916;13.352;2024-01-15T09:00:39;3.90;99.40
19088;DHT22;9676;50.916;13.352;2024-01-15T09:03:30;4.00;99.20
19088;DHT22;9676;50.916;13.352;2024-01-15T09:06:20;4.10;99.10
19088;DHT22;9676;50.916;13.352;2024-01-15T09:09:09;4.10;99.80
19088;DHT22;9676;50.916;13.352;2024-01-15T09:12:00;4.20;99.90
19088;DHT22;9676;50.916;13.352;2024-01-15T09:14:50;4.40;99.90
19088;DHT22;9676;50.916;13.352;2024-01-15T09:17:39;4.60;99.90
19088;DHT22;9676;50.916;13.352;2024-01-15T09:20:29;4.90;99.90
19088;DHT22;9676;50.916;13.352;2024-01-15T09:23:19;5.20;99.90
19088;DHT22;9676;50.916;13.352;2024-01-15T09:26:08;5.50;99.90
19088;DHT22;9676;50.916;13.352;2024-01-15T09:28:59;5.70;99.90
19088;DHT22;9676;50.916;13.352;2024-01-15T09:31:48;5.80;98.70
19088;DHT22;9676;50.916;13.352;2024-01-15T09:34:38;5.90;96.90
19088;DHT22;9676;50.916;13.352;2024-01-15T09:37:29;5.90;96.50
19088;DHT22;9676;50.916;13.352;2024-01-15T09:40:34;5.80;96.20
19088;DHT22;9676;50.916;13.352;2024-01-15T09:43:27;5.80;96.30
19088;DHT22;9676;50.916;13.352;2024-01-15T09:46:18;5.70;96.00
19088;DHT22;9676;50.916;13.352;2024-01-15T09:49:08;5.70;95.60
19088;DHT22;9676;50.916;13.352;2024-01-15T09:51:58;5.70;96.50
19088;DHT22;9676;50.916;13.352;2024-01-15T09:55:01;5.80;99.90
19088;DHT22;9676;50.916;13.352;2024-01-15T09:57:52;6.10;99.90
19088;DHT22;9676;50.916;13.352;2024-01-15T10:00:44;6.40;99.90
19088;DHT22;9676;50.916;13.352;2024-01-15T10:03:35;6.70;99.90
19088;DHT22;9676;50.916;13.352;2024-01-15T10:06:27;7.00;98.70
19088;DHT22;9676;50.916;13.352;2024-01-15T10:09:17;7.10;96.70
19088;DHT22;9676;50.916;13.352;2024-01-15T10:12:08;7.10;95.00
19088;DHT22;9676;50.916;13.352;2024-01-15T10:14:58;7.10;92.80
19088;DHT22;9676;50.916;13.352;2024-01-15T10:17:47;6.90;92.30
19088;DHT22;9676;50.916;13.352;2024-01-15T10:20:39;6.80;91.40
19088;DHT22;9676;50.916;13.352;2024-01-15T10:23:32;6.60;91.30
19088;DHT22;9676;50.916;13.352;2024-01-15T10:26:24;6.50;91.90
19088;DHT22;9676;50.916;13.352;2024-01-15T10:29:15;6.40;92.00
19088;DHT22;9676;50.916;13.352;2024-01-15T10:32:06;6.30;92.60
19088;DHT22;9676;50.916;13.352;2024-01-15T10:34:57;6.20;92.30
19088;DHT22;9676;50.916;13.352;2024-01-15T10:37:49;6.20;92.60
19088;DHT22;9676;50.916;13.352;2024-01-15T10:40:38;6.10;92.30
19088;DHT22;9676;50.916;13.352;2024-01-15T10:43:27;6.10;92.40
19088;DHT22;9676;50.916;13.352;2024-01-15T10:46:17;6.10;92.80
19088;DHT22;9676;50.916;13.352;2024-01-15T10:49:06;6.00;92.60
19088;DHT22;9676;50.916;13.352;2024-01-15T10:51:57;6.00;92.50
19088;DHT22;9676;50.916;13.352;2024-01-15T10:54:48;6.00;93.10
19088;DHT22;9676;50.916;13.352;2024-01-15T10:57:38;6.10;93.30
19088;DHT22;9676;50.916;13.352;2024-01-15T11:00:28;6.10;93.20
19088;DHT22;9676;50.916;13.352;2024-01-15T11:03:18;6.10;92.90
19088;DHT22;9676;50.916;13.352;2024-01-15T11:06:16;6.10;92.60
19088;DHT22;9676;50.916;13.352;2024-01-15T11:09:07;6.20;91.60
19088;DHT22;9676;50.916;13.352;2024-01-15T11:12:09;6.20;92.10
19088;DHT22;9676;50.916;13.352;2024-01-15T11:15:02;6.20;91.90
19088;DHT22;9676;50.916;13.352;2024-01-15T11:18:00;6.20;91.50
19088;DHT22;9676;50.916;13.352;2024-01-15T11:21:24;6.10;91.40
19088;DHT22;9676;50.916;13.352;2024-01-15T11:24:36;6.10;92.00
19088;DHT22;9676;50.916;13.352;2024-01-15T11:27:41;6.10;92.20
19088;DHT22;9676;50.916;13.352;2024-01-15T11:30:31;6.20;92.60
19088;DHT22;9676;50.916;13.352;2024-01-15T11:33:33;6.20;92.90
19088;DHT22;9676;50.916;13.352;2024-01-15T11:39:52;6.30;92.00
19088;DHT22;9676;50.916;13.352;2024-01-15T11:42:44;6.40;91.60
19088;DHT22;9676;50.916;13.352;2024-01-15T11:45:35;6.30;91.10
19088;DHT22;9676;50.916;13.352;2024-01-15T11:48:35;6.30;91.10
19088;DHT22;9676;50.916;13.352;2024-01-15T11:51:33;6.30;90.70
19088;DHT22;9676;50.916;13.352;2024-01-15T11:54:24;6.20;91.00
19088;DHT22;9676;50.916;13.352;2024-01-15T11:57:21;6.20;91.40
19088;DHT22;9676;50.916;13.352;2024-01-15T12:00:16;6.20;90.80
19088;DHT22;9676;50.916;13.352;2024-01-15T12:03:06;6.20;91.00
19088;DHT22;9676;50.916;13.352;2024-01-15T12:05:56;6.20;91.20
19088;DHT22;9676;50.916;13.352;2024-01-15T12:08:47;6.20;91.20
19088;DHT22;9676;50.916;13.352;2024-01-15T12:11:39;6.20;91.10
19088;DHT22;9676;50.916;13.352;2024-01-15T12:14:32;6.20;91.00
19088;DHT22;9676;50.916;13.352;2024-01-15T12:17:24;6.10;91.20
19088;DHT22;9676;50.916;13.352;2024-01-15T12:20:14;6.10;91.10
19088;DHT22;9676;50.916;13.352;2024-01-15T12:23:04;6.10;91.00
19088;DHT22;9676;50.916;13.352;2024-01-15T12:25:56;6.00;90.90
19088;DHT22;9676;50.916;13.352;2024-01-15T12:28:45;6.00;91.00
19088;DHT22;9676;50.916;13.352;2024-01-15T12:31:35;5.90;91.00
19088;DHT22;9676;50.916;13.352;2024-01-15T12:34:28;5.80;91.10
19088;DHT22;9676;50.916;13.352;2024-01-15T12:37:19;5.80;91.40
19088;DHT22;9676;50.916;13.352;2024-01-15T12:40:09;5.70;91.30
19088;DHT22;9676;50.916;13.352;2024-01-15T12:43:00;5.60;91.60
19088;DHT22;9676;50.916;13.352;2024-01-15T12:45:50;5.50;91.80
19088;DHT22;9676;50.916;13.352;2024-01-15T12:48:40;5.40;92.20
19088;DHT22;9676;50.916;13.352;2024-01-15T12:51:34;5.30;92.30
19088;DHT22;9676;50.916;13.352;2024-01-15T12:54:24;5.20;93.00
19088;DHT22;9676;50.916;13.352;2024-01-15T12:57:14;5.20;92.90
19088;DHT22;9676;50.916;13.352;2024-01-15T13:00:04;5.10;93.10
19088;DHT22;9676;50.916;13.352;2024-01-15T13:02:59;5.10;93.40
19088;DHT22;9676;50.916;13.352;2024-01-15T13:05:48;5.00;93.70
19088;DHT22;9676;50.916;13.352;2024-01-15T13:08:40;5.00;93.90
19088;DHT22;9676;50.916;13.352;2024-01-15T13:11:30;4.90;94.10
19088;DHT22;9676;50.916;13.352;2024-01-15T13:14:19;4.90;94.20
19088;DHT22;9676;50.916;13.352;2024-01-15T13:17:08;4.80;94.30
19088;DHT22;9676;50.916;13.352;2024-01-15T13:19:58;4.80;94.40
19088;DHT22;9676;50.916;13.352;2024-01-15T13:22:48;4.80;94.60
19088;DHT22;9676;50.916;13.352;2024-01-15T13:25:39;4.80;94.80
19088;DHT22;9676;50.916;13.352;2024-01-15T13:28:28;4.70;94.90
19088;DHT22;9676;50.916;13.352;2024-01-15T13:31:18;4.70;95.10
19088;DHT22;9676;50.916;13.352;2024-01-15T13:34:07;4.70;95.30
19088;DHT22;9676;50.916;13.352;2024-01-15T13:36:57;4.70;95.50
19088;DHT22;9676;50.916;13.352;2024-01-15T13:39:46;4.60;95.70
19088;DHT22;9676;50.916;13.352;2024-01-15T13:42:37;4.60;95.70
19088;DHT22;9676;50.916;13.352;2024-01-15T13:45:27;4.60;96.00
19088;DHT22;9676;50.916;13.352;2024-01-15T13:48:17;4.60;96.30
19088;DHT22;9676;50.916;13.352;2024-01-15T13:51:07;4.60;96.00
19088;DHT22;9676;50.916;13.352;2024-01-15T13:53:56;4.50;96.10
19088;DHT22;9676;50.916;13.352;2024-01-15T13:56:46;4.50;96.30
19088;DHT22;9676;50.916;13.352;2024-01-15T13:59:37;4.50;96.30
19088;DHT22;9676;50.916;13.352;2024-01-15T14:02:26;4.50;96.30
19088;DHT22;9676;50.916;13.352;2024-01-15T14:05:16;4.50;96.30
19088;DHT22;9676;50.916;13.352;2024-01-15T14:08:06;4.40;96.30
19088;DHT22;9676;50.916;13.352;2024-01-15T14:10:55;4.40;96.50
19088;DHT22;9676;50.916;13.352;2024-01-15T14:13:45;4.40;96.50
19088;DHT22;9676;50.916;13.352;2024-01-15T14:16:37;4.30;96.50
19088;DHT22;9676;50.916;13.352;2024-01-15T14:19:26;4.30;96.70
19088;DHT22;9676;50.916;13.352;2024-01-15T14:22:16;4.30;96.60
19088;DHT22;9676;50.916;13.352;2024-01-15T14:25:06;4.30;96.70
19088;DHT22;9676;50.916;13.352;2024-01-15T14:27:57;4.20;96.80
19088;DHT22;9676;50.916;13.352;2024-01-15T14:30:47;4.20;96.90
19088;DHT22;9676;50.916;13.352;2024-01-15T14:33:38;4.20;96.90
19088;DHT22;9676;50.916;13.352;2024-01-15T14:36:27;4.20;97.10
19088;DHT22;9676;50.916;13.352;2024-01-15T14:39:17;4.20;97.20
19088;DHT22;9676;50.916;13.352;2024-01-15T14:42:09;4.20;97.20
19088;DHT22;9676;50.916;13.352;2024-01-15T14:44:59;4.20;97.30
19088;DHT22;9676;50.916;13.352;2024-01-15T14:47:49;4.20;97.40
19088;DHT22;9676;50.916;13.352;2024-01-15T14:50:40;4.20;97.40
19088;DHT22;9676;50.916;13.352;2024-01-15T14:53:29;4.20;97.60
19088;DHT22;9676;50.916;13.352;2024-01-15T14:56:20;4.20;97.50
19088;DHT22;9676;50.916;13.352;2024-01-15T14:59:10;4.20;97.70
19088;DHT22;9676;50.916;13.352;2024-01-15T15:02:00;4.10;97.70
19088;DHT22;9676;50.916;13.352;2024-01-15T15:04:50;4.10;97.70
19088;DHT22;9676;50.916;13.352;2024-01-15T15:07:41;4.10;97.80
19088;DHT22;9676;50.916;13.352;2024-01-15T15:10:30;4.10;97.90
19088;DHT22;9676;50.916;13.352;2024-01-15T15:13:20;4.10;97.90
19088;DHT22;9676;50.916;13.352;2024-01-15T15:16:29;4.10;97.90
19088;DHT22;9676;50.916;13.352;2024-01-15T15:19:18;4.10;97.90
19088;DHT22;9676;50.916;13.352;2024-01-15T15:22:08;4.10;97.90
19088;DHT22;9676;50.916;13.352;2024-01-15T15:25:00;4.10;97.90
19088;DHT22;9676;50.916;13.352;2024-01-15T15:27:49;4.10;98.00
19088;DHT22;9676;50.916;13.352;2024-01-15T15:30:39;4.10;97.90
19088;DHT22;9676;50.916;13.352;2024-01-15T15:33:28;4.00;97.80
19088;DHT22;9676;50.916;13.352;2024-01-15T15:36:18;4.00;97.80
19088;DHT22;9676;50.916;13.352;2024-01-15T15:39:08;4.00;97.80
19088;DHT22;9676;50.916;13.352;2024-01-15T15:41:59;4.00;98.00
19088;DHT22;9676;50.916;13.352;2024-01-15T15:44:48;4.00;98.00
19088;DHT22;9676;50.916;13.352;2024-01-15T15:47:41;4.00;98.00
19088;DHT22;9676;50.916;13.352;2024-01-15T15:50:30;4.00;98.00
19088;DHT22;9676;50.916;13.352;2024-01-15T15:53:22;4.00;98.00
19088;DHT22;9676;50.916;13.352;2024-01-15T15:56:12;4.10;98.10
19088;DHT22;9676;50.916;13.352;2024-01-15T15:59:03;4.00;98.10
19088;DHT22;9676;50.916;13.352;2024-01-15T16:01:52;4.00;98.20
19088;DHT22;9676;50.916;13.352;2024-01-15T16:04:42;4.00;98.10
19088;DHT22;9676;50.916;13.352;2024-01-15T16:07:32;4.00;98.20
19088;DHT22;9676;50.916;13.352;2024-01-15T16:10:21;3.90;98.10
19088;DHT22;9676;50.916;13.352;2024-01-15T16:13:10;3.90;98.10
19088;DHT22;9676;50.916;13.352;2024-01-15T16:16:03;3.90;98.30
19088;DHT22;9676;50.916;13.352;2024-01-15T16:19:12;3.90;98.40
19088;DHT22;9676;50.916;13.352;2024-01-15T16:22:22;3.90;98.40
19088;DHT22;9676;50.916;13.352;2024-01-15T16:25:32;3.90;98.40
19088;DHT22;9676;50.916;13.352;2024-01-15T16:28:26;3.90;98.40
19088;DHT22;9676;50.916;13.352;2024-01-15T16:31:17;3.90;98.50
19088;DHT22;9676;50.916;13.352;2024-01-15T16:34:06;3.90;98.70
19088;DHT22;9676;50.916;13.352;2024-01-15T16:36:58;3.90;98.70
19088;DHT22;9676;50.916;13.352;2024-01-15T16:39:47;3.90;98.80
19088;DHT22;9676;50.916;13.352;2024-01-15T16:42:37;3.90;98.90
19088;DHT22;9676;50.916;13.352;2024-01-15T16:45:26;3.90;98.90
19088;DHT22;9676;50.916;13.352;2024-01-15T16:48:17;4.00;98.90
19088;DHT22;9676;50.916;13.352;2024-01-15T16:51:07;4.00;99.10
19088;DHT22;9676;50.916;13.352;2024-01-15T16:53:56;4.00;98.80
19088;DHT22;9676;50.916;13.352;2024-01-15T16:56:46;4.00;98.70
19088;DHT22;9676;50.916;13.352;2024-01-15T16:59:36;4.00;98.60
19088;DHT22;9676;50.916;13.352;2024-01-15T17:02:25;4.00;98.40
19088;DHT22;9676;50.916;13.352;2024-01-15T17:05:16;4.00;98.40
19088;DHT22;9676;50.916;13.352;2024-01-15T17:08:06;4.00;98.40
19088;DHT22;9676;50.916;13.352;2024-01-15T17:10:56;3.90;98.20
19088;DHT22;9676;50.916;13.352;2024-01-15T17:13:49;3.90;98.40
19088;DHT22;9676;50.916;13.352;2024-01-15T17:16:39;3.90;98.50
19088;DHT22;9676;50.916;13.352;2024-01-15T17:19:28;3.90;98.60
19088;DHT22;9676;50.916;13.352;2024-01-15T17:22:19;3.90;98.70
19088;DHT22;9676;50.916;13.352;2024-01-15T17:25:08;3.90;98.90
19088;DHT22;9676;50.916;13.352;2024-01-15T17:27:58;3.90;99.10
19088;DHT22;9676;50.916;13.352;2024-01-15T17:30:49;3.90;99.30
19088;DHT22;9676;50.916;13.352;2024-01-15T17:33:38;3.90;99.40
19088;DHT22;9676;50.916;13.352;2024-01-15T17:36:28;3.90;99.60
19088;DHT22;9676;50.916;13.352;2024-01-15T17:39:19;4.00;99.60
19088;DHT22;9676;50.916;13.352;2024-01-15T17:42:09;4.00;99.60
19088;DHT22;9676;50.916;13.352;2024-01-15T17:44:58;4.00;99.60
19088;DHT22;9676;50.916;13.352;2024-01-15T17:47:48;4.00;99.50
19088;DHT22;9676;50.916;13.352;2024-01-15T17:50:38;4.00;99.60
19088;DHT22;9676;50.916;13.352;2024-01-15T17:53:28;4.00;99.70
19088;DHT22;9676;50.916;13.352;2024-01-15T17:56:19;4.00;99.70
19088;DHT22;9676;50.916;13.352;2024-01-15T17:59:08;4.00;99.90
19088;DHT22;9676;50.916;13.352;2024-01-15T18:01:58;4.10;99.90
19088;DHT22;9676;50.916;13.352;2024-01-15T18:04:48;4.10;99.90
19088;DHT22;9676;50.916;13.352;2024-01-15T18:07:37;4.00;99.90
19088;DHT22;9676;50.916;13.352;2024-01-15T18:10:27;4.10;99.90
19088;DHT22;9676;50.916;13.352;2024-01-15T18:13:18;4.10;99.90
19088;DHT22;9676;50.916;13.352;2024-01-15T18:16:07;4.10;99.90
19088;DHT22;9676;50.916;13.352;2024-01-15T18:18:56;4.20;99.90